Time;durP1;ratioP1;P1;durP2;ratioP2;P2;SDS_P1;SDS_P2;PMS_P1;PMS_P2;Temp;Humidity;BMP_temperature;BMP_pressure;BME280_temperature;BME280_humidity;BME280_pressure;Samples;Min_cycle;Max_cycle;Signal;HPM_P1;HPM_P2
2022/07/07 00:01:19;;;;;;;14.73;11.63;;;;;;;;;;752672;185;633403;-67
2022/07/07 00:03:45;;;;;;;13.83;10.60;;;;;;;;;;753728;185;637663;-68
2022/07/07 00:06:10;;;;;;;12.10;10.67;;;;;;;;;;749277;185;627723;-67
2022/07/07 00:08:36;;;;;;;15.73;10.33;;;;;;;;;;753606;185;639072;-68
2022/07/07 00:11:03;;;;;;;11.05;9.95;;;;;;;;;;749757;185;1020860;-66
2022/07/07 00:13:29;;;;;;;11.53;10.37;;;;;;;;;;749532;185;918686;-68
2022/07/07 00:15:55;;;;;;;16.47;10.53;;;;;;;;;;749857;183;919027;-68
2022/07/07 00:18:21;;;;;;;12.40;9.93;;;;;;;;;;750756;185;626770;-67
2022/07/07 00:20:47;;;;;;;10.73;8.10;;;;;;;;;;756589;185;1023431;-67
2022/07/07 00:23:12;;;;;;;12.73;8.50;;;;;;;;;;750904;185;642648;-68
2022/07/07 00:25:38;;;;;;;9.57;8.63;;;;;;;;;;749163;185;1017948;-68
2022/07/07 00:28:04;;;;;;;11.60;8.73;;;;;;;;;;751430;185;1021144;-68
2022/07/07 00:30:30;;;;;;;13.13;7.70;;;;;;;;;;753240;185;636435;-69
2022/07/07 00:32:56;;;;;;;10.00;8.45;;;;;;;;;;751589;185;1021154;-68
2022/07/07 00:35:22;;;;;;;9.10;7.62;;;;;;;;;;746871;185;915429;-67
2022/07/07 00:37:48;;;;;;;11.50;8.33;;;;;;;;;;747291;185;918292;-67
2022/07/07 00:40:14;;;;;;;10.50;8.80;;;;;;;;;;750129;185;915029;-67
2022/07/07 00:42:40;;;;;;;9.40;8.37;;;;;;;;;;751955;185;665163;-67
2022/07/07 00:45:06;;;;;;;10.47;9.37;;;;;;;;;;754331;185;915572;-67
2022/07/07 00:47:31;;;;;;;11.60;8.90;;;;;;;;;;745882;185;915944;-68
2022/07/07 00:49:57;;;;;;;11.07;9.27;;;;;;;;;;746272;185;914615;-67
2022/07/07 00:52:23;;;;;;;10.23;6.80;;;;;;;;;;751829;185;932604;-67
2022/07/07 00:54:53;;;;;;;9.90;6.87;;;;;;;;;;747826;185;917136;-67
2022/07/07 00:57:19;;;;;;;10.30;6.80;;;;;;;;;;752669;185;718596;-67
2022/07/07 00:59:44;;;;;;;12.47;6.83;;;;;;;;;;748892;185;915488;-66
2022/07/07 01:02:10;;;;;;;10.93;7.20;;;;;;;;;;753375;185;639663;-68
2022/07/07 01:04:36;;;;;;;11.17;7.23;;;;;;;;;;749902;185;630345;-68
2022/07/07 01:07:02;;;;;;;7.87;7.07;;;;;;;;;;747414;186;649258;-66
2022/07/07 01:09:28;;;;;;;15.87;7.60;;;;;;;;;;738082;189;636004;-66
2022/07/07 01:11:54;;;;;;;9.67;7.67;;;;;;;;;;730181;191;620001;-66
2022/07/07 01:14:19;;;;;;;12.00;8.10;;;;;;;;;;728261;191;919050;-67
2022/07/07 01:16:46;;;;;;;11.10;8.23;;;;;;;;;;732614;189;912154;-67
2022/07/07 01:19:12;;;;;;;10.03;9.03;;;;;;;;;;734352;189;919448;-66
2022/07/07 01:21:39;;;;;;;11.50;7.90;;;;;;;;;;736052;189;623202;-66
2022/07/07 01:24:05;;;;;;;22.77;10.90;;;;;;;;;;735778;189;640366;-66
2022/07/07 01:26:31;;;;;;;10.47;8.53;;;;;;;;;;736911;187;862730;-68
2022/07/07 01:28:57;;;;;;;18.37;9.20;;;;;;;;;;741323;188;642061;-68
2022/07/07 01:31:22;;;;;;;14.10;9.70;;;;;;;;;;740091;189;629363;-70
2022/07/07 01:33:48;;;;;;;13.30;9.73;;;;;;;;;;739806;188;630035;-68
2022/07/07 01:36:14;;;;;;;13.93;9.80;;;;;;;;;;750299;185;707442;-67
2022/07/07 01:38:40;;;;;;;12.90;10.10;;;;;;;;;;749510;185;919085;-68
2022/07/07 01:41:06;;;;;;;13.67;9.87;;;;;;;;;;754649;185;650605;-67
2022/07/07 01:43:32;;;;;;;13.73;9.90;;;;;;;;;;749467;185;640505;-67
2022/07/07 01:45:58;;;;;;;15.50;10.40;;;;;;;;;;747346;185;919295;-71
2022/07/07 01:48:23;;;;;;;10.77;9.32;;;;;;;;;;744351;185;918797;-67
2022/07/07 01:50:49;;;;;;;16.83;10.83;;;;;;;;;;756492;185;635501;-68
2022/07/07 01:53:15;;;;;;;17.80;10.60;;;;;;;;;;751101;185;620916;-67
2022/07/07 01:55:41;;;;;;;11.60;9.50;;;;;;;;;;748050;185;918998;-67
2022/07/07 01:58:07;;;;;;;11.50;8.93;;;;;;;;;;754439;185;920037;-67
2022/07/07 02:00:33;;;;;;;10.20;8.70;;;;;;;;;;750340;185;618687;-68
2022/07/07 02:02:59;;;;;;;12.77;8.53;;;;;;;;;;747972;185;919102;-67
2022/07/07 02:05:24;;;;;;;14.98;9.50;;;;;;;;;;751392;185;919793;-68
2022/07/07 02:07:50;;;;;;;13.43;9.43;;;;;;;;;;754465;185;621354;-68
2022/07/07 02:11:12;;;;;;;11.97;8.83;;;;;;;;;;750791;185;919298;-68
2022/07/07 02:12:42;;;;;;;10.00;8.77;;;;;;;;;;750270;185;621688;-67
2022/07/07 02:15:08;;;;;;;17.13;9.90;;;;;;;;;;755868;185;645419;-67
2022/07/07 02:17:34;;;;;;;12.03;9.30;;;;;;;;;;746421;186;919225;-68
2022/07/07 02:20:01;;;;;;;17.60;8.97;;;;;;;;;;752390;185;635910;-67
2022/07/07 02:22:26;;;;;;;13.60;9.30;;;;;;;;;;751378;185;900440;-67
2022/07/07 02:24:52;;;;;;;24.47;10.87;;;;;;;;;;748851;185;632557;-67
2022/07/07 02:27:18;;;;;;;13.33;9.77;;;;;;;;;;747895;185;622069;-67
2022/07/07 02:29:44;;;;;;;10.43;9.20;;;;;;;;;;753372;185;623858;-67
2022/07/07 02:32:10;;;;;;;11.93;8.97;;;;;;;;;;750612;185;918075;-67
2022/07/07 02:34:36;;;;;;;18.90;8.40;;;;;;;;;;749508;185;621195;-68
2022/07/07 02:37:01;;;;;;;10.53;7.90;;;;;;;;;;751832;185;629210;-66
2022/07/07 02:39:27;;;;;;;23.53;8.47;;;;;;;;;;756815;185;709479;-68
2022/07/07 02:41:53;;;;;;;16.33;8.80;;;;;;;;;;752946;186;626351;-67
2022/07/07 02:44:19;;;;;;;15.67;7.67;;;;;;;;;;747814;185;635208;-67
2022/07/07 02:46:45;;;;;;;14.03;7.20;;;;;;;;;;753506;185;625261;-68
2022/07/07 02:49:11;;;;;;;11.03;6.90;;;;;;;;;;748135;185;919677;-67
2022/07/07 02:51:37;;;;;;;13.10;6.07;;;;;;;;;;750792;185;630607;-67
2022/07/07 02:54:02;;;;;;;7.57;5.47;;;;;;;;;;757591;185;627397;-67
2022/07/07 02:56:28;;;;;;;26.10;7.63;;;;;;;;;;749213;185;1016827;-67
2022/07/07 02:58:54;;;;;;;25.83;8.63;;;;;;;;;;752132;185;624192;-68
2022/07/07 03:01:20;;;;;;;12.60;6.23;;;;;;;;;;751575;185;628228;-67
2022/07/07 03:03:46;;;;;;;14.73;6.27;;;;;;;;;;738421;190;631146;-67
2022/07/07 03:06:12;;;;;;;10.50;7.20;;;;;;;;;;747175;185;632292;-68
2022/07/07 03:08:38;;;;;;;7.70;6.30;;;;;;;;;;751994;185;632024;-67
2022/07/07 03:11:03;;;;;;;8.13;7.33;;;;;;;;;;751051;185;618123;-68
2022/07/07 03:13:30;;;;;;;9.15;8.10;;;;;;;;;;747305;185;889095;-67
2022/07/07 03:15:56;;;;;;;12.93;8.37;;;;;;;;;;750049;185;620927;-68
2022/07/07 03:18:22;;;;;;;9.67;7.90;;;;;;;;;;757184;185;653005;-69
2022/07/07 03:20:48;;;;;;;11.70;8.93;;;;;;;;;;748037;185;1020492;-67
2022/07/07 03:23:14;;;;;;;10.93;9.00;;;;;;;;;;744945;185;918789;-68
2022/07/07 03:25:40;;;;;;;16.33;9.00;;;;;;;;;;745689;185;920209;-67
2022/07/07 03:28:06;;;;;;;16.17;9.67;;;;;;;;;;737775;186;725970;-67
2022/07/07 03:30:32;;;;;;;17.10;10.60;;;;;;;;;;747832;185;919401;-68
2022/07/07 03:32:58;;;;;;;17.20;11.03;;;;;;;;;;748207;185;661033;-67
2022/07/07 03:35:24;;;;;;;16.07;12.57;;;;;;;;;;753792;185;917710;-67
2022/07/07 03:37:49;;;;;;;21.50;12.50;;;;;;;;;;750705;185;631002;-67
2022/07/07 03:40:15;;;;;;;23.90;12.80;;;;;;;;;;746793;185;654724;-67
2022/07/07 03:42:41;;;;;;;16.62;13.35;;;;;;;;;;751497;185;919445;-67
2022/07/07 03:45:09;;;;;;;18.77;15.33;;;;;;;;;;752083;185;919773;-67
2022/07/07 03:47:35;;;;;;;21.10;15.83;;;;;;;;;;745828;185;742248;-67
2022/07/07 03:50:00;;;;;;;21.77;16.67;;;;;;;;;;750961;183;639638;-69
2022/07/07 03:52:26;;;;;;;18.90;15.80;;;;;;;;;;745843;188;627023;-67
2022/07/07 03:54:52;;;;;;;22.80;14.87;;;;;;;;;;756499;185;630627;-67
2022/07/07 03:57:18;;;;;;;16.62;13.75;;;;;;;;;;747748;185;944374;-66
2022/07/07 03:59:44;;;;;;;20.93;15.60;;;;;;;;;;753040;185;654585;-68
2022/07/07 04:02:10;;;;;;;23.77;14.60;;;;;;;;;;751554;185;633012;-67
2022/07/07 04:04:36;;;;;;;18.10;15.57;;;;;;;;;;749667;185;919275;-67
2022/07/07 04:07:01;;;;;;;16.73;13.60;;;;;;;;;;752911;185;913110;-68
2022/07/07 04:09:27;;;;;;;17.23;14.47;;;;;;;;;;752457;185;642064;-68
2022/07/07 04:11:53;;;;;;;27.03;15.50;;;;;;;;;;747664;185;620559;-67
2022/07/07 04:14:19;;;;;;;16.43;14.60;;;;;;;;;;747707;185;627261;-67
2022/07/07 04:16:46;;;;;;;21.90;13.63;;;;;;;;;;751691;185;639741;-68
2022/07/07 04:19:12;;;;;;;27.10;14.77;;;;;;;;;;751425;185;653435;-67
2022/07/07 04:21:38;;;;;;;15.87;14.17;;;;;;;;;;751089;185;620470;-67
2022/07/07 04:24:04;;;;;;;18.60;15.00;;;;;;;;;;754694;185;637828;-67
2022/07/07 04:26:30;;;;;;;15.90;14.13;;;;;;;;;;748162;185;633492;-67
2022/07/07 04:28:55;;;;;;;19.00;13.90;;;;;;;;;;748034;185;631721;-67
2022/07/07 04:31:21;;;;;;;16.90;13.07;;;;;;;;;;751956;185;919107;-67
2022/07/07 04:33:47;;;;;;;20.80;14.67;;;;;;;;;;750731;185;919141;-67
2022/07/07 04:36:14;;;;;;;16.17;14.10;;;;;;;;;;749601;185;917798;-67
2022/07/07 04:38:39;;;;;;;16.80;13.07;;;;;;;;;;743396;186;917589;-69
2022/07/07 04:41:05;;;;;;;13.83;12.37;;;;;;;;;;750874;186;619738;-68
2022/07/07 04:43:31;;;;;;;15.53;13.83;;;;;;;;;;726257;191;920118;-67
2022/07/07 04:45:57;;;;;;;17.00;12.60;;;;;;;;;;741274;186;919445;-67
2022/07/07 04:48:23;;;;;;;15.23;12.30;;;;;;;;;;748358;186;616856;-68
2022/07/07 04:50:48;;;;;;;18.03;11.73;;;;;;;;;;745540;185;920233;-67
2022/07/07 04:53:14;;;;;;;15.20;11.63;;;;;;;;;;750021;186;621917;-67
2022/07/07 04:55:40;;;;;;;12.87;11.60;;;;;;;;;;752022;185;627989;-69
2022/07/07 04:58:06;;;;;;;22.53;10.83;;;;;;;;;;749716;185;626729;-68
2022/07/07 05:00:33;;;;;;;11.97;10.63;;;;;;;;;;749316;185;915932;-68
2022/07/07 05:02:59;;;;;;;11.90;10.67;;;;;;;;;;752087;185;626939;-69
2022/07/07 05:05:25;;;;;;;14.00;11.60;;;;;;;;;;755662;185;916145;-68
2022/07/07 05:07:51;;;;;;;13.63;10.93;;;;;;;;;;751727;185;900000;-69
2022/07/07 05:10:16;;;;;;;16.73;10.43;;;;;;;;;;749874;185;628668;-69
2022/07/07 05:12:42;;;;;;;10.73;8.70;;;;;;;;;;752757;185;624095;-70
2022/07/07 05:15:09;;;;;;;10.90;9.43;;;;;;;;;;752003;185;639080;-69
2022/07/07 05:17:36;;;;;;;10.20;8.80;;;;;;;;;;751654;185;623737;-71
2022/07/07 05:20:01;;;;;;;11.50;10.30;;;;;;;;;;755040;185;613164;-70
2022/07/07 05:22:27;;;;;;;13.00;10.53;;;;;;;;;;748223;185;918064;-70
2022/07/07 05:24:53;;;;;;;13.53;9.73;;;;;;;;;;744297;185;1022152;-70
2022/07/07 05:27:19;;;;;;;13.43;9.93;;;;;;;;;;748345;185;628598;-69
2022/07/07 05:29:45;;;;;;;16.03;10.10;;;;;;;;;;758521;185;650459;-71
2022/07/07 05:32:11;;;;;;;11.93;9.10;;;;;;;;;;752814;185;640208;-70
2022/07/07 05:34:37;;;;;;;10.50;9.50;;;;;;;;;;751215;185;919494;-69
2022/07/07 05:37:03;;;;;;;12.10;8.83;;;;;;;;;;754581;185;621999;-70
2022/07/07 05:39:30;;;;;;;12.30;9.43;;;;;;;;;;749413;185;918668;-70
2022/07/07 05:41:54;;;;;;;12.93;9.67;;;;;;;;;;744931;185;919329;-72
2022/07/07 05:44:21;;;;;;;9.50;8.53;;;;;;;;;;756119;185;620553;-71
2022/07/07 05:46:46;;;;;;;12.53;9.00;;;;;;;;;;750644;185;918592;-70
2022/07/07 05:49:12;;;;;;;10.40;7.77;;;;;;;;;;746220;185;919679;-72
2022/07/07 05:51:38;;;;;;;11.03;8.10;;;;;;;;;;747819;185;642708;-71
2022/07/07 05:54:04;;;;;;;12.40;8.10;;;;;;;;;;756082;185;620537;-70
2022/07/07 05:56:30;;;;;;;9.17;8.23;;;;;;;;;;745314;185;918313;-73
2022/07/07 05:58:55;;;;;;;12.23;9.10;;;;;;;;;;749545;185;941973;-70
2022/07/07 06:01:21;;;;;;;8.37;7.57;;;;;;;;;;753276;185;642238;-69
2022/07/07 06:03:47;;;;;;;17.87;8.83;;;;;;;;;;749540;185;694719;-70
2022/07/07 06:06:13;;;;;;;8.80;7.90;;;;;;;;;;752075;185;647577;-71
2022/07/07 06:08:39;;;;;;;10.10;8.80;;;;;;;;;;752820;185;636953;-72
2022/07/07 06:11:05;;;;;;;10.80;7.80;;;;;;;;;;752316;185;627913;-71
2022/07/07 06:13:31;;;;;;;8.90;7.43;;;;;;;;;;751681;185;616306;-71
2022/07/07 06:15:57;;;;;;;11.40;7.07;;;;;;;;;;751727;185;647435;-70
2022/07/07 06:18:22;;;;;;;10.40;6.60;;;;;;;;;;755698;185;625068;-71
2022/07/07 06:20:49;;;;;;;12.77;7.73;;;;;;;;;;750408;185;636826;-73
2022/07/07 06:23:14;;;;;;;7.43;6.60;;;;;;;;;;749698;185;638951;-71
2022/07/07 06:25:42;;;;;;;8.83;6.40;;;;;;;;;;757277;185;627037;-71
2022/07/07 06:28:06;;;;;;;8.77;6.90;;;;;;;;;;747064;185;922937;-71
2022/07/07 06:30:32;;;;;;;7.60;5.67;;;;;;;;;;751472;185;631959;-72
2022/07/07 06:32:58;;;;;;;7.30;5.90;;;;;;;;;;752634;185;919384;-71
2022/07/07 06:35:26;;;;;;;11.53;5.87;;;;;;;;;;749760;185;691100;-72
2022/07/07 06:37:50;;;;;;;9.97;6.67;;;;;;;;;;732134;189;623865;-72
2022/07/07 06:40:15;;;;;;;9.20;6.97;;;;;;;;;;741533;189;631970;-70
2022/07/07 06:42:42;;;;;;;7.47;5.90;;;;;;;;;;743501;188;920328;-72
2022/07/07 06:45:07;;;;;;;13.10;5.50;;;;;;;;;;740737;189;856077;-71
2022/07/07 06:47:34;;;;;;;7.03;5.73;;;;;;;;;;741838;189;630691;-72
2022/07/07 06:49:59;;;;;;;11.90;5.17;;;;;;;;;;747273;189;627937;-72
2022/07/07 06:52:25;;;;;;;6.77;5.50;;;;;;;;;;741270;189;963252;-72
2022/07/07 06:54:51;;;;;;;5.93;4.50;;;;;;;;;;741893;189;625389;-71
2022/07/07 06:57:17;;;;;;;5.60;4.80;;;;;;;;;;741841;189;919250;-71
2022/07/07 06:59:43;;;;;;;7.53;4.57;;;;;;;;;;738355;189;1021560;-73
2022/07/07 07:02:08;;;;;;;8.57;4.57;;;;;;;;;;741769;189;917716;-73
2022/07/07 07:04:34;;;;;;;8.00;4.07;;;;;;;;;;742568;189;626083;-71
2022/07/07 07:07:00;;;;;;;7.20;4.33;;;;;;;;;;744169;189;626279;-73
2022/07/07 07:09:26;;;;;;;9.23;5.37;;;;;;;;;;741042;189;919534;-72
2022/07/07 07:11:54;;;;;;;7.40;4.70;;;;;;;;;;743629;189;633778;-72
2022/07/07 07:14:18;;;;;;;6.70;4.30;;;;;;;;;;745355;189;791974;-71
2022/07/07 07:16:43;;;;;;;7.17;4.47;;;;;;;;;;743838;187;636709;-72
2022/07/07 07:19:09;;;;;;;8.63;4.40;;;;;;;;;;740620;189;631247;-71
2022/07/07 07:21:35;;;;;;;7.67;4.27;;;;;;;;;;746119;189;630764;-72
2022/07/07 07:24:01;;;;;;;4.80;4.17;;;;;;;;;;746581;187;618941;-72
2022/07/07 07:26:27;;;;;;;5.78;4.57;;;;;;;;;;745257;188;715357;-71
2022/07/07 07:28:53;;;;;;;5.63;4.60;;;;;;;;;;743813;188;641905;-71
2022/07/07 07:31:19;;;;;;;9.33;3.77;;;;;;;;;;746752;188;666235;-71
2022/07/07 07:33:47;;;;;;;7.27;4.00;;;;;;;;;;743839;188;644569;-71
2022/07/07 07:36:11;;;;;;;4.77;4.17;;;;;;;;;;741966;188;1013959;-70
2022/07/07 07:38:37;;;;;;;6.07;4.03;;;;;;;;;;748698;188;621053;-72
2022/07/07 07:41:02;;;;;;;4.07;3.47;;;;;;;;;;741515;188;920235;-70
2022/07/07 07:43:28;;;;;;;5.30;4.10;;;;;;;;;;743027;189;907203;-71
2022/07/07 07:45:54;;;;;;;6.40;4.50;;;;;;;;;;743419;188;918453;-71
2022/07/07 07:48:20;;;;;;;5.23;3.70;;;;;;;;;;740014;189;919859;-70
2022/07/07 07:50:46;;;;;;;9.77;4.00;;;;;;;;;;742348;189;911038;-70
2022/07/07 07:53:12;;;;;;;6.40;4.12;;;;;;;;;;745304;189;920389;-70
2022/07/07 07:55:39;;;;;;;6.60;4.20;;;;;;;;;;746506;189;914198;-71
2022/07/07 07:58:04;;;;;;;4.30;3.50;;;;;;;;;;741094;189;918630;-71
2022/07/07 08:00:30;;;;;;;5.65;4.20;;;;;;;;;;738947;188;919918;-71
2022/07/07 08:02:56;;;;;;;5.90;3.70;;;;;;;;;;747545;189;641927;-70
2022/07/07 08:05:21;;;;;;;5.80;4.03;;;;;;;;;;744687;189;617010;-70
2022/07/07 08:07:47;;;;;;;3.50;3.17;;;;;;;;;;742947;189;625488;-71
2022/07/07 08:10:13;;;;;;;5.30;3.80;;;;;;;;;;745579;189;916129;-72
2022/07/07 08:12:39;;;;;;;4.93;3.40;;;;;;;;;;738738;189;913797;-71
2022/07/07 08:15:06;;;;;;;8.07;3.90;;;;;;;;;;742958;189;919448;-71
2022/07/07 08:17:31;;;;;;;4.27;3.37;;;;;;;;;;743314;189;919091;-70
2022/07/07 08:19:57;;;;;;;4.60;4.07;;;;;;;;;;745878;189;630106;-71
2022/07/07 08:22:23;;;;;;;7.77;3.73;;;;;;;;;;745088;189;630441;-73
2022/07/07 08:24:49;;;;;;;5.50;3.90;;;;;;;;;;742164;189;648563;-71
2022/07/07 08:27:15;;;;;;;4.47;3.10;;;;;;;;;;743581;189;919131;-71
2022/07/07 08:29:41;;;;;;;4.70;3.60;;;;;;;;;;743976;189;636311;-72
2022/07/07 08:32:07;;;;;;;5.53;3.87;;;;;;;;;;740873;187;918872;-71
2022/07/07 08:34:33;;;;;;;6.60;3.70;;;;;;;;;;744380;189;934073;-71
2022/07/07 08:36:58;;;;;;;6.87;3.57;;;;;;;;;;742447;186;917236;-70
2022/07/07 08:39:24;;;;;;;6.23;3.27;;;;;;;;;;742830;188;919569;-71
2022/07/07 08:41:51;;;;;;;6.85;3.70;;;;;;;;;;747170;187;635212;-71
2022/07/07 08:44:16;;;;;;;5.50;4.27;;;;;;;;;;755251;185;666620;-71
2022/07/07 08:46:42;;;;;;;4.37;3.30;;;;;;;;;;751624;185;919345;-69
2022/07/07 08:49:09;;;;;;;5.20;3.87;;;;;;;;;;751711;185;680715;-71
2022/07/07 08:51:35;;;;;;;11.10;3.50;;;;;;;;;;753121;185;919136;-70
2022/07/07 08:54:01;;;;;;;5.20;4.03;;;;;;;;;;747027;185;1132615;-71
2022/07/07 08:56:26;;;;;;;6.57;3.70;;;;;;;;;;749441;185;641418;-72
2022/07/07 08:58:52;;;;;;;5.17;3.70;;;;;;;;;;752684;185;632113;-71
2022/07/07 09:01:18;;;;;;;5.10;3.60;;;;;;;;;;752583;185;691060;-71
2022/07/07 09:03:44;;;;;;;5.32;3.83;;;;;;;;;;750304;185;918413;-71
2022/07/07 09:06:10;;;;;;;4.90;3.10;;;;;;;;;;747411;185;918955;-70
2022/07/07 09:08:37;;;;;;;5.10;3.47;;;;;;;;;;738389;191;641682;-71
2022/07/07 09:11:02;;;;;;;5.73;3.43;;;;;;;;;;746878;185;658939;-71
2022/07/07 09:13:29;;;;;;;4.93;3.30;;;;;;;;;;750519;185;638471;-71
2022/07/07 09:15:54;;;;;;;4.93;3.33;;;;;;;;;;751800;185;641072;-71
2022/07/07 09:18:26;;;;;;;4.85;3.72;;;;;;;;;;749031;185;920108;-71
2022/07/07 09:20:52;;;;;;;8.63;3.50;;;;;;;;;;747232;185;916174;-71
2022/07/07 09:23:18;;;;;;;5.93;4.07;;;;;;;;;;750656;185;626552;-70
2022/07/07 09:25:44;;;;;;;4.50;3.20;;;;;;;;;;748905;185;619638;-70
2022/07/07 09:28:09;;;;;;;5.50;3.70;;;;;;;;;;751925;185;918916;-71
2022/07/07 09:30:38;;;;;;;8.23;3.70;;;;;;;;;;746496;185;1017571;-70
2022/07/07 09:33:04;;;;;;;4.00;3.60;;;;;;;;;;751432;185;628966;-71
2022/07/07 09:40:33;;;;;;;5.00;3.27;;;;;;;;;;751626;185;645003;-70
2022/07/07 09:42:58;;;;;;;3.70;3.03;;;;;;;;;;754228;185;638765;-70
2022/07/07 09:45:24;;;;;;;7.17;3.30;;;;;;;;;;749178;185;629406;-72
2022/07/07 09:47:50;;;;;;;4.17;3.10;;;;;;;;;;751402;183;640870;-71
2022/07/07 09:50:17;;;;;;;4.53;2.77;;;;;;;;;;755369;185;668018;-70
2022/07/07 09:52:42;;;;;;;7.23;3.17;;;;;;;;;;750690;185;914055;-70
2022/07/07 09:55:08;;;;;;;8.67;3.03;;;;;;;;;;753478;185;636403;-69
2022/07/07 09:57:34;;;;;;;4.00;2.90;;;;;;;;;;750881;185;631114;-71
2022/07/07 10:00:00;;;;;;;4.13;2.80;;;;;;;;;;753297;185;619653;-71
2022/07/07 10:02:26;;;;;;;3.63;2.87;;;;;;;;;;753190;185;624970;-72
2022/07/07 10:04:52;;;;;;;6.83;2.50;;;;;;;;;;749956;185;918527;-71
2022/07/07 10:07:18;;;;;;;3.67;2.40;;;;;;;;;;756216;185;623341;-71
2022/07/07 10:09:44;;;;;;;2.93;2.30;;;;;;;;;;748329;185;630945;-70
2022/07/07 10:12:10;;;;;;;3.53;2.10;;;;;;;;;;745321;185;919487;-73
2022/07/07 10:14:35;;;;;;;6.33;2.50;;;;;;;;;;747439;185;915595;-70
2022/07/07 10:17:01;;;;;;;6.87;2.70;;;;;;;;;;750428;185;640241;-72
2022/07/07 10:19:27;;;;;;;3.80;2.70;;;;;;;;;;750089;185;641402;-71
2022/07/07 10:21:53;;;;;;;4.17;2.60;;;;;;;;;;753114;185;641452;-69
2022/07/07 10:24:19;;;;;;;3.60;2.40;;;;;;;;;;754310;185;639128;-71
2022/07/07 10:26:47;;;;;;;4.77;2.70;;;;;;;;;;748269;185;649910;-72
2022/07/07 10:29:12;;;;;;;3.57;2.53;;;;;;;;;;746837;185;916204;-70
2022/07/07 10:31:38;;;;;;;4.27;2.73;;;;;;;;;;753081;185;649530;-71
2022/07/07 10:34:06;;;;;;;4.63;2.80;;;;;;;;;;751921;185;622261;-69
2022/07/07 10:36:38;;;;;;;7.12;2.70;;;;;;;;;;749182;185;918485;-72
2022/07/07 10:39:04;;;;;;;3.50;2.57;;;;;;;;;;748963;185;918966;-70
2022/07/07 10:41:29;;;;;;;4.37;3.03;;;;;;;;;;751813;185;715390;-72
2022/07/07 10:43:57;;;;;;;3.80;2.33;;;;;;;;;;750599;185;917228;-70
2022/07/07 10:46:23;;;;;;;4.20;2.63;;;;;;;;;;747147;185;918755;-72
2022/07/07 10:48:50;;;;;;;3.07;2.30;;;;;;;;;;752268;185;799740;-71
2022/07/07 10:51:15;;;;;;;4.57;2.80;;;;;;;;;;747560;185;916837;-71
2022/07/07 10:53:41;;;;;;;6.77;2.37;;;;;;;;;;749058;185;918833;-71
2022/07/07 10:56:07;;;;;;;7.67;2.40;;;;;;;;;;747581;185;917239;-70
2022/07/07 10:58:39;;;;;;;6.00;2.27;;;;;;;;;;756379;185;619100;-72
2022/07/07 11:01:08;;;;;;;3.47;2.33;;;;;;;;;;753582;185;635992;-71
2022/07/07 11:03:33;;;;;;;3.87;2.45;;;;;;;;;;747746;185;918896;-72
2022/07/07 11:06:00;;;;;;;3.60;2.20;;;;;;;;;;748665;185;636655;-70
2022/07/07 11:08:25;;;;;;;3.20;2.40;;;;;;;;;;736803;188;643989;-71
2022/07/07 11:10:51;;;;;;;4.20;2.70;;;;;;;;;;743204;185;650089;-72
2022/07/07 11:13:18;;;;;;;4.03;2.70;;;;;;;;;;745080;186;919278;-71
2022/07/07 11:15:44;;;;;;;3.43;2.23;;;;;;;;;;744954;186;916588;-69
2022/07/07 11:18:11;;;;;;;3.23;2.30;;;;;;;;;;748927;185;628117;-71
2022/07/07 11:20:37;;;;;;;4.03;2.20;;;;;;;;;;745250;185;1020126;-68
2022/07/07 11:23:06;;;;;;;6.23;2.43;;;;;;;;;;745181;186;919107;-73
2022/07/07 11:25:32;;;;;;;5.83;3.10;;;;;;;;;;743551;189;633720;-72
2022/07/07 11:27:58;;;;;;;3.20;2.40;;;;;;;;;;725258;191;918289;-70
2022/07/07 11:30:24;;;;;;;4.17;2.13;;;;;;;;;;736442;189;920250;-72
2022/07/07 11:32:51;;;;;;;7.77;2.83;;;;;;;;;;743533;189;657118;-70
2022/07/07 11:35:17;;;;;;;4.40;2.50;;;;;;;;;;741549;189;645503;-70
2022/07/07 11:37:43;;;;;;;6.43;3.03;;;;;;;;;;742617;189;627713;-73
2022/07/07 11:40:27;;;;;;;7.13;2.37;;;;;;;;;;747018;187;641966;-70
2022/07/07 11:42:53;;;;;;;7.93;2.60;;;;;;;;;;743290;189;911775;-72
2022/07/07 11:45:21;;;;;;;8.03;3.20;;;;;;;;;;750940;185;812710;-68
2022/07/07 11:47:47;;;;;;;4.43;3.53;;;;;;;;;;751068;185;632993;-70
2022/07/07 11:50:13;;;;;;;4.33;2.90;;;;;;;;;;749570;185;625034;-67
2022/07/07 11:52:38;;;;;;;4.17;2.60;;;;;;;;;;755475;185;614814;-70
2022/07/07 11:55:04;;;;;;;4.70;2.60;;;;;;;;;;748444;185;628867;-70
2022/07/07 11:57:33;;;;;;;3.50;2.23;;;;;;;;;;750540;185;629036;-70
2022/07/07 12:00:05;;;;;;;4.47;2.80;;;;;;;;;;750705;185;635392;-71
2022/07/07 12:02:30;;;;;;;3.77;3.37;;;;;;;;;;748213;185;627735;-72
2022/07/07 12:04:56;;;;;;;4.10;3.30;;;;;;;;;;754062;185;637813;-71
2022/07/07 12:07:22;;;;;;;4.80;3.47;;;;;;;;;;753261;185;642146;-71
2022/07/07 12:09:48;;;;;;;6.03;4.70;;;;;;;;;;756020;185;617071;-73
2022/07/07 12:12:16;;;;;;;5.70;3.83;;;;;;;;;;754397;185;641978;-73
2022/07/07 12:14:42;;;;;;;6.00;3.67;;;;;;;;;;753031;185;633362;-70
2022/07/07 12:17:07;;;;;;;4.63;2.87;;;;;;;;;;754764;185;616916;-73
2022/07/07 12:19:33;;;;;;;4.33;3.20;;;;;;;;;;751595;185;665234;-72
2022/07/07 12:21:59;;;;;;;5.10;3.40;;;;;;;;;;752523;185;672867;-74
2022/07/07 12:24:25;;;;;;;4.90;3.83;;;;;;;;;;753988;185;625188;-73
2022/07/07 12:26:51;;;;;;;4.13;3.30;;;;;;;;;;755432;185;622901;-74
2022/07/07 12:29:17;;;;;;;5.83;3.00;;;;;;;;;;751764;185;636811;-74
2022/07/07 12:31:42;;;;;;;4.73;3.30;;;;;;;;;;747565;185;910451;-73
2022/07/07 12:34:08;;;;;;;5.00;3.87;;;;;;;;;;752347;185;641416;-74
2022/07/07 12:36:34;;;;;;;3.67;3.20;;;;;;;;;;748484;185;628162;-74
2022/07/07 12:39:01;;;;;;;4.83;3.40;;;;;;;;;;750754;185;632637;-74
2022/07/07 12:41:29;;;;;;;4.87;3.70;;;;;;;;;;755021;185;640901;-73
2022/07/07 12:43:55;;;;;;;5.10;3.80;;;;;;;;;;749728;185;626181;-74
2022/07/07 12:46:21;;;;;;;3.90;3.50;;;;;;;;;;752948;185;721177;-74
2022/07/07 12:48:47;;;;;;;5.50;3.90;;;;;;;;;;751782;185;635529;-75
2022/07/07 12:51:12;;;;;;;5.83;3.83;;;;;;;;;;755265;185;656628;-73
2022/07/07 12:53:38;;;;;;;9.60;4.40;;;;;;;;;;751893;185;646869;-73
2022/07/07 12:56:07;;;;;;;5.17;4.00;;;;;;;;;;750325;185;618085;-73
2022/07/07 12:58:33;;;;;;;5.27;3.73;;;;;;;;;;754960;185;631095;-73
2022/07/07 13:00:59;;;;;;;8.10;4.63;;;;;;;;;;751273;185;708992;-72
2022/07/07 13:03:25;;;;;;;9.67;3.80;;;;;;;;;;753008;185;629074;-69
2022/07/07 13:05:50;;;;;;;6.63;5.30;;;;;;;;;;750809;185;650201;-67
2022/07/07 13:08:16;;;;;;;9.07;5.27;;;;;;;;;;754199;185;650981;-68
2022/07/07 13:10:43;;;;;;;6.90;5.07;;;;;;;;;;748074;185;632033;-68
2022/07/07 13:13:08;;;;;;;8.33;5.43;;;;;;;;;;750728;185;633101;-67
2022/07/07 13:15:34;;;;;;;6.40;5.67;;;;;;;;;;754456;185;636375;-68
2022/07/07 13:18:00;;;;;;;15.87;5.90;;;;;;;;;;750052;185;634080;-69
2022/07/07 13:20:26;;;;;;;6.55;5.30;;;;;;;;;;751628;185;910585;-68
2022/07/07 13:22:51;;;;;;;7.07;5.70;;;;;;;;;;756459;185;643059;-67
2022/07/07 13:25:17;;;;;;;8.50;7.03;;;;;;;;;;750252;185;621904;-66
2022/07/07 13:27:43;;;;;;;14.33;6.23;;;;;;;;;;750558;185;627985;-65
2022/07/07 13:30:09;;;;;;;8.40;6.70;;;;;;;;;;751211;185;636330;-66
2022/07/07 13:32:35;;;;;;;9.13;6.90;;;;;;;;;;749187;185;629622;-67
2022/07/07 13:35:01;;;;;;;6.80;6.20;;;;;;;;;;752925;185;629158;-69
2022/07/07 13:37:27;;;;;;;10.33;6.80;;;;;;;;;;752937;185;648174;-65
2022/07/07 13:39:53;;;;;;;8.00;7.10;;;;;;;;;;753994;185;620068;-65
2022/07/07 13:42:19;;;;;;;10.33;7.30;;;;;;;;;;749211;185;636905;-66
2022/07/07 13:44:45;;;;;;;8.70;6.30;;;;;;;;;;750546;185;638971;-66
2022/07/07 13:47:11;;;;;;;7.30;5.73;;;;;;;;;;755312;185;645353;-66
2022/07/07 13:49:37;;;;;;;10.90;5.93;;;;;;;;;;750867;185;633040;-67
2022/07/07 13:52:03;;;;;;;9.20;6.80;;;;;;;;;;748630;185;655316;-66
2022/07/07 13:54:31;;;;;;;10.33;6.57;;;;;;;;;;750722;185;631882;-65
2022/07/07 13:56:54;;;;;;;7.57;6.77;;;;;;;;;;756452;182;626318;-66
2022/07/07 13:59:20;;;;;;;11.50;7.37;;;;;;;;;;750681;185;665653;-65
2022/07/07 14:01:46;;;;;;;13.10;6.93;;;;;;;;;;751103;185;715619;-65
2022/07/07 14:04:12;;;;;;;9.90;7.03;;;;;;;;;;754361;185;628569;-66
2022/07/07 14:06:38;;;;;;;9.27;6.80;;;;;;;;;;749999;185;682762;-66
2022/07/07 14:09:03;;;;;;;8.70;7.40;;;;;;;;;;750565;185;704581;-67
2022/07/07 14:11:29;;;;;;;7.63;6.93;;;;;;;;;;753783;185;625193;-65
2022/07/07 14:13:55;;;;;;;9.70;6.20;;;;;;;;;;751426;185;622499;-67
2022/07/07 14:16:21;;;;;;;7.17;6.43;;;;;;;;;;751651;185;633978;-66
2022/07/07 14:18:47;;;;;;;8.30;6.87;;;;;;;;;;749299;185;636945;-65